Time;durP1;ratioP1;P1;durP2;ratioP2;P2;SDS_P1;SDS_P2;PMS_P1;PMS_P2;Temp;Humidity;BMP_temperature;BMP_pressure;BME280_temperature;BME280_humidity;BME280_pressure;Samples;Min_cycle;Max_cycle;Signal;HPM_P1;HPM_P2
2021/01/02 00:02:07;;;;;;;16.67;12.40;;;6.20;97.90;;;;;;5090350;27;20040;-62
2021/01/02 00:05:06;;;;;;;15.73;13.10;;;6.30;97.60;;;;;;5092974;28;20393;-62
2021/01/02 00:08:12;;;;;;;16.20;13.47;;;6.30;97.40;;;;;;5089689;28;20105;-61
2021/01/02 00:11:28;;;;;;;17.63;14.38;;;6.30;97.60;;;;;;5035669;27;20097;-62
2021/01/02 00:14:31;;;;;;;15.83;13.70;;;6.30;98.00;;;;;;5074005;28;20031;-62
2021/01/02 00:17:18;;;;;;;16.47;14.33;;;6.20;97.60;;;;;;5063435;28;20263;-63
2021/01/02 00:20:04;;;;;;;17.60;13.30;;;6.30;97.80;;;;;;5020839;28;20038;-63
2021/01/02 00:22:39;;;;;;;18.90;15.00;;;6.30;97.90;;;;;;5089837;28;20505;-62
2021/01/02 00:25:11;;;;;;;16.57;14.57;;;6.30;97.80;;;;;;5098069;28;20065;-64
2021/01/02 00:27:42;;;;;;;19.63;14.73;;;6.40;98.20;;;;;;5075970;28;20043;-62
2021/01/02 00:30:14;;;;;;;18.73;15.27;;;6.40;98.20;;;;;;5093651;28;20388;-63
2021/01/02 00:32:50;;;;;;;18.47;14.33;;;6.30;98.60;;;;;;5089853;28;20055;-63
2021/01/02 00:35:24;;;;;;;17.03;14.83;;;6.30;98.80;;;;;;5101564;28;20119;-62
2021/01/02 00:38:02;;;;;;;16.27;14.32;;;6.30;98.40;;;;;;5095797;28;20064;-63
2021/01/02 00:40:35;;;;;;;16.70;14.87;;;6.40;98.60;;;;;;5092298;28;20036;-63
2021/01/02 00:43:02;;;;;;;17.90;14.47;;;6.30;98.70;;;;;;5090813;28;20048;-62
2021/01/02 00:45:29;;;;;;;17.63;14.30;;;6.30;98.80;;;;;;5101702;28;20064;-63
2021/01/02 00:47:55;;;;;;;18.67;15.17;;;6.30;98.60;;;;;;5097768;27;20048;-62
2021/01/02 00:50:22;;;;;;;15.47;13.77;;;6.30;99.90;;;;;;5099824;27;20035;-63
2021/01/02 00:52:52;;;;;;;16.57;13.43;;;6.30;99.90;;;;;;5085510;28;20047;-62
2021/01/02 00:55:48;;;;;;;18.23;15.23;;;6.30;99.90;;;;;;5104720;28;20361;-63
2021/01/02 00:58:39;;;;;;;16.67;14.17;;;6.30;99.90;;;;;;5074968;27;20028;-63
2021/01/02 01:01:06;;;;;;;15.57;13.30;;;6.30;99.90;;;;;;5071008;27;20210;-62
2021/01/02 01:03:54;;;;;;;20.40;15.20;;;6.30;99.90;;;;;;5103267;28;20401;-62
2021/01/02 01:06:21;;;;;;;15.90;13.53;;;6.30;99.90;;;;;;5083566;28;20044;-62
2021/01/02 01:08:51;;;;;;;15.90;13.73;;;6.20;99.90;;;;;;5100208;27;20142;-62
2021/01/02 01:11:20;;;;;;;16.37;14.07;;;6.20;99.90;;;;;;5089661;28;20042;-63
2021/01/02 01:13:49;;;;;;;19.47;15.67;;;6.20;99.90;;;;;;5098296;27;20181;-62
2021/01/02 01:16:20;;;;;;;16.07;13.27;;;6.20;99.90;;;;;;5103701;27;20067;-62
2021/01/02 01:18:58;;;;;;;17.67;14.43;;;6.20;99.90;;;;;;5087736;27;20450;-62
2021/01/02 01:21:27;;;;;;;15.47;12.87;;;6.20;99.90;;;;;;5098356;28;20031;-62
2021/01/02 01:24:03;;;;;;;16.63;13.10;;;6.10;99.90;;;;;;5096557;27;20040;-62
2021/01/02 01:26:56;;;;;;;16.30;13.10;;;6.00;99.90;;;;;;5098988;27;20047;-63
2021/01/02 01:29:27;;;;;;;17.13;14.70;;;6.10;99.90;;;;;;5071769;28;20380;-62
2021/01/02 01:31:58;;;;;;;16.27;13.20;;;6.20;99.90;;;;;;5097621;28;20044;-62
2021/01/02 01:34:26;;;;;;;15.03;12.67;;;6.20;99.90;;;;;;5095487;27;20106;-63
2021/01/02 01:36:54;;;;;;;16.80;13.20;;;6.10;99.90;;;;;;5105836;27;20044;-63
2021/01/02 01:39:22;;;;;;;14.93;13.00;;;6.10;99.90;;;;;;5090793;28;20040;-62
2021/01/02 01:42:20;;;;;;;14.27;12.77;;;6.10;99.90;;;;;;5106646;27;20043;-62
2021/01/02 01:44:55;;;;;;;16.60;13.87;;;6.10;99.90;;;;;;5030836;27;20039;-62
2021/01/02 01:47:35;;;;;;;17.08;13.23;;;6.00;99.90;;;;;;5098335;27;20178;-63
2021/01/02 01:50:25;;;;;;;14.77;12.40;;;6.00;99.90;;;;;;5095438;27;20074;-61
2021/01/02 01:52:51;;;;;;;13.93;12.07;;;5.90;99.90;;;;;;5087564;28;20040;-62
2021/01/02 01:55:55;;;;;;;12.83;11.50;;;5.90;99.90;;;;;;5097785;28;20509;-62
2021/01/02 01:58:38;;;;;;;14.27;12.13;;;6.00;99.90;;;;;;5074033;28;20503;-62
2021/01/02 02:01:05;;;;;;;14.80;12.63;;;5.90;99.90;;;;;;5068526;28;20401;-62
2021/01/02 02:03:42;;;;;;;15.80;12.73;;;6.00;99.90;;;;;;5100044;28;20111;-62
2021/01/02 02:06:33;;;;;;;13.73;12.30;;;6.00;99.90;;;;;;5091585;27;20082;-62
2021/01/02 02:09:00;;;;;;;13.43;11.53;;;6.10;99.90;;;;;;5097985;27;20524;-63
2021/01/02 02:11:35;;;;;;;14.43;11.47;;;6.10;99.90;;;;;;5098427;27;20157;-62
2021/01/02 02:14:10;;;;;;;12.73;11.05;;;6.10;99.90;;;;;;5097477;27;21233;-62
2021/01/02 02:16:57;;;;;;;14.17;11.10;;;6.00;99.90;;;;;;5096683;27;20042;-62
2021/01/02 02:19:43;;;;;;;12.63;11.30;;;6.00;99.90;;;;;;5099203;28;20039;-63
2021/01/02 02:22:14;;;;;;;13.27;11.10;;;6.00;99.90;;;;;;5081495;27;20048;-62
2021/01/02 02:24:43;;;;;;;13.00;11.17;;;6.00;99.90;;;;;;5104160;27;20070;-62
2021/01/02 02:27:13;;;;;;;11.57;10.37;;;5.90;99.90;;;;;;5096810;28;20073;-62
2021/01/02 02:30:03;;;;;;;15.97;11.20;;;5.90;99.90;;;;;;5096940;27;20039;-62
2021/01/02 02:32:34;;;;;;;13.73;10.37;;;5.90;99.90;;;;;;5096885;28;20035;-63
2021/01/02 02:35:03;;;;;;;12.57;11.03;;;6.00;99.90;;;;;;5097273;28;20038;-62
2021/01/02 02:37:30;;;;;;;11.83;9.40;;;5.90;99.90;;;;;;5094590;28;20067;-62
2021/01/02 02:39:55;;;;;;;13.63;10.83;;;5.80;99.90;;;;;;5097023;28;20040;-62
2021/01/02 02:42:22;;;;;;;12.50;10.50;;;5.80;99.90;;;;;;5093045;28;20065;-62
2021/01/02 02:44:52;;;;;;;16.27;10.80;;;5.90;99.90;;;;;;5104572;28;20063;-62
2021/01/02 02:47:21;;;;;;;14.27;10.90;;;5.90;99.90;;;;;;5092588;28;20135;-62
2021/01/02 02:49:49;;;;;;;16.23;10.87;;;5.90;99.90;;;;;;5099347;28;20036;-62
2021/01/02 02:52:37;;;;;;;13.17;10.73;;;6.00;99.90;;;;;;5096640;28;20028;-62
2021/01/02 02:55:04;;;;;;;15.23;12.23;;;6.00;99.90;;;;;;5094817;28;20036;-62
2021/01/02 02:57:33;;;;;;;14.97;12.00;;;6.00;99.90;;;;;;5098733;28;20523;-61
2021/01/02 02:59:59;;;;;;;11.70;10.07;;;6.00;99.90;;;;;;5107339;28;20069;-63
2021/01/02 03:02:26;;;;;;;14.60;10.67;;;6.00;99.90;;;;;;5096124;28;20036;-63
2021/01/02 03:08:15;;;;;;;11.00;8.73;;;6.00;99.90;;;;;;5041408;28;20133;-62
2021/01/02 03:10:43;;;;;;;13.70;9.60;;;6.00;99.90;;;;;;5101069;28;20035;-62
2021/01/02 03:13:09;;;;;;;17.53;11.00;;;6.00;99.90;;;;;;5098557;28;20031;-62
2021/01/02 03:15:42;;;;;;;12.73;9.33;;;5.90;99.90;;;;;;5101984;28;20039;-62
2021/01/02 03:18:11;;;;;;;14.23;10.23;;;6.00;99.90;;;;;;5098460;28;20036;-62
2021/01/02 03:20:37;;;;;;;13.20;9.57;;;5.90;99.90;;;;;;5097340;28;20051;-62
2021/01/02 03:23:03;;;;;;;18.70;10.07;;;5.90;99.90;;;;;;5093702;28;20105;-62
2021/01/02 03:25:29;;;;;;;18.47;10.57;;;6.00;99.90;;;;;;5097408;28;20036;-62
2021/01/02 03:27:57;;;;;;;12.20;7.90;;;6.00;99.90;;;;;;5099649;28;20043;-62
2021/01/02 03:30:26;;;;;;;9.37;7.00;;;6.00;99.90;;;;;;5092441;28;20122;-63
2021/01/02 03:32:51;;;;;;;12.10;7.13;;;6.00;99.90;;;;;;5101455;28;20135;-62
2021/01/02 03:35:17;;;;;;;12.17;7.50;;;5.90;99.90;;;;;;5097386;28;20128;-63
2021/01/02 03:37:47;;;;;;;13.10;6.23;;;6.00;99.90;;;;;;5082809;28;20114;-62
2021/01/02 03:40:17;;;;;;;17.90;7.77;;;6.00;99.90;;;;;;5076824;27;675202;-62
2021/01/02 03:42:45;;;;;;;9.13;5.53;;;6.10;99.90;;;;;;5098412;27;20038;-63
2021/01/02 03:45:13;;;;;;;6.33;4.83;;;5.80;99.90;;;;;;5083286;28;20059;-62
2021/01/02 03:47:42;;;;;;;9.87;5.70;;;5.70;99.90;;;;;;5098286;27;20108;-63
2021/01/02 03:50:08;;;;;;;6.83;5.20;;;5.90;99.90;;;;;;5095753;27;20035;-62
2021/01/02 03:52:40;;;;;;;7.77;5.13;;;5.80;99.90;;;;;;5099031;28;20036;-62
2021/01/02 03:55:10;;;;;;;8.97;6.03;;;5.80;99.90;;;;;;5097408;27;20054;-62
2021/01/02 03:57:36;;;;;;;8.93;6.40;;;5.70;99.90;;;;;;5097394;28;20081;-62
2021/01/02 04:00:05;;;;;;;6.63;5.93;;;5.70;99.90;;;;;;5095529;28;20039;-62
2021/01/02 04:02:31;;;;;;;7.77;6.47;;;5.90;99.90;;;;;;5101945;27;20036;-62
2021/01/02 04:04:56;;;;;;;6.53;5.03;;;5.80;99.90;;;;;;5099394;27;20042;-62
2021/01/02 04:07:22;;;;;;;5.80;5.20;;;5.80;99.90;;;;;;5096689;28;20093;-63
2021/01/02 04:09:47;;;;;;;7.53;5.30;;;5.80;99.90;;;;;;5097156;28;20493;-63
2021/01/02 04:12:13;;;;;;;6.17;4.70;;;5.90;99.90;;;;;;5099644;27;20096;-63
2021/01/02 04:14:39;;;;;;;8.53;4.40;;;5.80;99.90;;;;;;5099816;28;20089;-62
2021/01/02 04:17:04;;;;;;;8.37;4.80;;;5.90;99.90;;;;;;5091679;28;20032;-62
2021/01/02 04:19:34;;;;;;;5.50;4.37;;;5.90;99.90;;;;;;5103650;28;20108;-63
2021/01/02 04:21:59;;;;;;;5.33;3.90;;;6.00;99.90;;;;;;5091562;28;20040;-63
2021/01/02 04:24:26;;;;;;;6.13;4.20;;;5.90;99.90;;;;;;5098811;28;20036;-62
2021/01/02 04:26:57;;;;;;;3.90;2.97;;;5.90;99.90;;;;;;5094562;27;20047;-60
2021/01/02 04:33:04;;;;;;;3.83;3.27;;;6.00;99.90;;;;;;5004712;28;20146;-62
2021/01/02 04:35:30;;;;;;;5.30;3.43;;;5.90;99.90;;;;;;5092714;28;20428;-62
2021/01/02 04:37:56;;;;;;;4.33;3.13;;;5.90;99.90;;;;;;5089093;28;20032;-62
2021/01/02 04:40:22;;;;;;;3.27;2.53;;;6.00;99.90;;;;;;5095486;28;22392;-63
2021/01/02 04:42:48;;;;;;;3.40;2.37;;;6.00;99.90;;;;;;5082169;28;20036;-63
2021/01/02 04:45:15;;;;;;;6.57;3.00;;;6.00;99.90;;;;;;5100141;28;20032;-63
2021/01/02 04:47:44;;;;;;;2.43;2.23;;;6.00;99.90;;;;;;5090079;28;20062;-62
2021/01/02 04:50:10;;;;;;;2.50;2.20;;;6.00;99.90;;;;;;5096896;28;20028;-62
2021/01/02 04:52:36;;;;;;;4.07;2.50;;;6.10;99.90;;;;;;5082295;28;20024;-62
2021/01/02 04:58:23;;;;;;;3.37;2.30;;;6.10;99.90;;;;;;5043433;28;20338;-62
2021/01/02 05:00:52;;;;;;;2.70;1.90;;;6.10;99.90;;;;;;5096351;28;20032;-62
2021/01/02 05:03:18;;;;;;;4.13;2.00;;;6.10;99.90;;;;;;5072530;28;20123;-62
2021/01/02 05:05:49;;;;;;;3.00;2.30;;;6.10;99.90;;;;;;5098309;28;20118;-62
2021/01/02 05:08:14;;;;;;;3.63;2.27;;;6.20;99.90;;;;;;5090155;28;20048;-62
2021/01/02 05:10:40;;;;;;;5.53;2.50;;;6.10;99.90;;;;;;5101608;28;20416;-62
2021/01/02 05:13:12;;;;;;;2.80;2.40;;;6.20;99.90;;;;;;5088786;28;20038;-62
2021/01/02 05:15:38;;;;;;;3.17;2.50;;;6.30;99.90;;;;;;5094114;28;20493;-62
2021/01/02 05:18:05;;;;;;;4.60;3.53;;;6.20;99.90;;;;;;5092098;28;20032;-61
2021/01/02 05:20:30;;;;;;;3.93;3.53;;;6.20;99.90;;;;;;5097221;28;20032;-62
2021/01/02 05:23:07;;;;;;;3.97;3.43;;;6.10;99.90;;;;;;5091033;28;20155;-62
2021/01/02 05:25:33;;;;;;;4.37;3.53;;;6.10;99.90;;;;;;5096053;28;20330;-60
2021/01/02 05:27:58;;;;;;;3.70;3.30;;;6.20;99.90;;;;;;5089236;28;20063;-63
2021/01/02 05:30:26;;;;;;;3.50;3.20;;;6.20;99.90;;;;;;5093371;28;20032;-62
2021/01/02 05:33:00;;;;;;;4.23;3.10;;;6.30;99.90;;;;;;5100253;28;20059;-62
2021/01/02 05:35:27;;;;;;;;;;;6.30;99.90;;;;;;5093919;28;20032;-62
2021/01/02 05:37:53;;;;;;;3.17;2.87;;;6.20;99.90;;;;;;5098748;27;20281;-62
2021/01/02 05:40:38;;;;;;;2.97;2.47;;;6.20;99.90;;;;;;5083854;28;20047;-62
2021/01/02 05:43:04;;;;;;;3.40;2.90;;;6.20;99.90;;;;;;5101085;27;20084;-61
2021/01/02 05:45:30;;;;;;;3.90;3.33;;;6.20;99.90;;;;;;5099664;27;20035;-63
2021/01/02 05:47:57;;;;;;;7.03;5.47;;;6.20;99.90;;;;;;5096156;27;20108;-62
2021/01/02 05:50:23;;;;;;;6.40;5.70;;;6.20;99.90;;;;;;5084010;28;20547;-62
2021/01/02 05:52:50;;;;;;;7.20;6.47;;;6.20;99.90;;;;;;5098524;27;20053;-62
2021/01/02 05:55:29;;;;;;;8.37;7.47;;;6.20;99.90;;;;;;5094340;27;20104;-62
2021/01/02 05:57:55;;;;;;;9.27;7.43;;;6.30;99.90;;;;;;5100902;27;20467;-62
2021/01/02 06:00:22;;;;;;;9.00;8.07;;;6.20;99.90;;;;;;5096243;28;20136;-62
2021/01/02 06:02:49;;;;;;;9.53;7.57;;;6.20;99.90;;;;;;5100512;27;20064;-62
2021/01/02 06:05:14;;;;;;;10.30;8.93;;;6.20;99.90;;;;;;5095928;27;20040;-62
2021/01/02 06:07:49;;;;;;;11.20;9.70;;;6.10;99.90;;;;;;5096638;28;20097;-62
2021/01/02 06:10:15;;;;;;;11.15;9.13;;;6.20;99.90;;;;;;5096779;28;20040;-62
2021/01/02 06:12:42;;;;;;;11.00;9.27;;;6.20;99.90;;;;;;5098342;28;20028;-62
2021/01/02 06:15:15;;;;;;;9.30;8.40;;;6.20;99.90;;;;;;5102205;27;20028;-62
2021/01/02 06:17:47;;;;;;;11.67;9.50;;;6.20;99.90;;;;;;5103764;27;20056;-62
2021/01/02 06:20:15;;;;;;;8.97;8.07;;;6.20;99.90;;;;;;5087581;28;20042;-62
2021/01/02 06:22:42;;;;;;;9.67;8.67;;;6.20;99.90;;;;;;5095798;28;20049;-62
2021/01/02 06:25:10;;;;;;;10.83;9.43;;;6.20;99.90;;;;;;5094315;28;20036;-61
2021/01/02 06:34:20;;;;;;;9.97;8.07;;;6.30;99.90;;;;;;5047589;27;20048;-62
2021/01/02 06:36:55;;;;;;;11.67;9.40;;;6.20;99.90;;;;;;5094026;28;20032;-62
2021/01/02 06:39:27;;;;;;;9.73;8.13;;;6.40;99.90;;;;;;5051855;28;20049;-62
2021/01/02 06:41:54;;;;;;;6.47;5.87;;;6.30;99.90;;;;;;5063946;28;21507;-62
2021/01/02 06:44:45;;;;;;;7.03;6.33;;;6.30;99.90;;;;;;5066396;28;20055;-62
2021/01/02 06:47:33;;;;;;;7.27;5.00;;;6.30;99.90;;;;;;5035022;28;20510;-62
2021/01/02 06:50:16;;;;;;;5.90;4.90;;;6.30;99.90;;;;;;5064334;28;20039;-62
2021/01/02 06:52:42;;;;;;;6.80;5.43;;;6.30;99.90;;;;;;5020798;28;20082;-62
2021/01/02 06:55:21;;;;;;;5.70;5.10;;;6.30;99.90;;;;;;5060218;28;20040;-62
2021/01/02 07:01:24;;;;;;;5.33;4.60;;;6.30;99.90;;;;;;5014406;28;20189;-62
2021/01/02 07:03:50;;;;;;;4.40;4.00;;;6.30;99.90;;;;;;5062619;28;20060;-62
2021/01/02 07:06:26;;;;;;;5.13;4.70;;;6.20;99.90;;;;;;5064770;28;20036;-62
2021/01/02 07:09:27;;;;;;;6.13;4.27;;;6.20;99.90;;;;;;5053365;28;20056;-62
2021/01/02 07:12:12;;;;;;;4.17;3.60;;;6.10;99.90;;;;;;5022571;28;20037;-62
2021/01/02 07:14:38;;;;;;;;;;;6.10;99.90;;;;;;5069867;28;20032;-62
2021/01/02 07:17:03;;;;;;;5.90;4.77;;;6.10;99.90;;;;;;5055823;28;19913;-60
2021/01/02 07:19:36;;;;;;;6.17;3.90;;;6.10;99.90;;;;;;5058694;28;20502;-62
2021/01/02 07:22:02;;;;;;;5.10;4.17;;;6.20;99.90;;;;;;5063489;28;20032;-62
2021/01/02 07:24:40;;;;;;;5.03;4.53;;;6.10;99.90;;;;;;5062611;28;20032;-62
2021/01/02 07:27:07;;;;;;;6.27;5.23;;;6.20;99.90;;;;;;5065545;28;20044;-61
2021/01/02 07:29:44;;;;;;;4.57;4.17;;;6.30;99.90;;;;;;5063232;28;20032;-61
2021/01/02 07:32:10;;;;;;;5.10;4.00;;;6.30;99.90;;;;;;5033662;28;20044;-62
2021/01/02 07:34:36;;;;;;;5.80;4.90;;;6.20;99.90;;;;;;5059688;28;20063;-62
2021/01/02 07:37:05;;;;;;;5.73;4.90;;;6.20;99.90;;;;;;5062764;28;20041;-62
2021/01/02 07:39:30;;;;;;;5.27;4.67;;;6.30;99.90;;;;;;5082795;28;20052;-62
2021/01/02 07:42:02;;;;;;;6.20;5.10;;;6.30;99.90;;;;;;5098426;27;20097;-62
2021/01/02 07:44:28;;;;;;;6.47;5.40;;;6.40;99.90;;;;;;5094934;27;20191;-62
2021/01/02 07:46:54;;;;;;;5.63;5.07;;;6.40;99.90;;;;;;5103405;28;20651;-62
2021/01/02 07:49:20;;;;;;;6.40;5.43;;;6.30;99.90;;;;;;5093677;27;20084;-62
2021/01/02 07:51:47;;;;;;;6.87;5.57;;;6.40;99.90;;;;;;5065398;28;20039;-61
2021/01/02 07:54:26;;;;;;;6.33;5.30;;;6.40;99.90;;;;;;5094410;27;20038;-59
2021/01/02 07:56:52;;;;;;;6.00;5.40;;;6.40;99.90;;;;;;5095841;28;20048;-60
2021/01/02 07:59:29;;;;;;;7.33;5.80;;;6.50;99.90;;;;;;5094093;27;20043;-60
2021/01/02 08:01:56;;;;;;;6.50;5.83;;;6.50;99.90;;;;;;5090098;28;20040;-61
2021/01/02 08:04:23;;;;;;;7.93;6.50;;;6.50;99.90;;;;;;5094690;28;20040;-60
2021/01/02 08:06:52;;;;;;;7.57;6.77;;;6.50;99.90;;;;;;5099501;28;20188;-60
2021/01/02 08:09:18;;;;;;;7.27;5.83;;;6.60;99.90;;;;;;5097491;27;20165;-60
2021/01/02 08:12:00;;;;;;;6.27;5.67;;;6.50;99.90;;;;;;5094176;27;20039;-60
2021/01/02 08:14:29;;;;;;;7.10;6.37;;;6.50;99.90;;;;;;5092536;28;20079;-61
2021/01/02 08:17:05;;;;;;;7.30;6.50;;;6.50;99.90;;;;;;5092296;28;20099;-61
2021/01/02 08:19:50;;;;;;;7.60;6.80;;;6.60;99.90;;;;;;5092107;28;20039;-61
2021/01/02 08:22:37;;;;;;;7.47;6.73;;;6.60;99.90;;;;;;5041917;28;20129;-61
2021/01/02 08:25:16;;;;;;;7.53;6.43;;;6.60;99.90;;;;;;5096600;28;20039;-61
2021/01/02 08:27:44;;;;;;;7.83;7.03;;;6.60;99.90;;;;;;5041305;28;20471;-61
2021/01/02 08:30:11;;;;;;;7.87;6.10;;;6.60;99.90;;;;;;5101020;27;20035;-60
2021/01/02 08:32:46;;;;;;;8.00;6.33;;;6.60;99.90;;;;;;5103543;28;20051;-60
2021/01/02 08:35:16;;;;;;;;;;;6.60;99.90;;;;;;5091545;28;20032;-60
2021/01/02 08:37:43;;;;;;;7.07;6.37;;;6.50;99.90;;;;;;5099979;28;19915;-60
2021/01/02 08:40:13;;;;;;;10.70;7.67;;;6.50;99.90;;;;;;5096319;28;20055;-61
2021/01/02 08:42:39;;;;;;;7.60;6.80;;;6.50;99.90;;;;;;5081977;28;20052;-60
2021/01/02 08:45:07;;;;;;;7.73;6.27;;;6.50;99.90;;;;;;5101785;28;20036;-61
2021/01/02 08:47:34;;;;;;;8.10;7.30;;;6.60;99.90;;;;;;5093677;28;20154;-61
2021/01/02 08:50:11;;;;;;;7.47;6.53;;;6.60;99.90;;;;;;5100496;28;20142;-61
2021/01/02 08:52:37;;;;;;;7.57;6.53;;;6.70;99.90;;;;;;5093576;28;20043;-60
2021/01/02 08:55:16;;;;;;;6.97;6.17;;;6.70;99.90;;;;;;5087232;28;20040;-60
2021/01/02 08:57:53;;;;;;;7.03;6.33;;;6.80;99.90;;;;;;5064196;28;20035;-60
2021/01/02 09:00:19;;;;;;;8.47;6.57;;;6.70;99.90;;;;;;5102971;28;20051;-60
2021/01/02 09:02:49;;;;;;;7.77;6.97;;;6.80;99.90;;;;;;5094979;28;20032;-60
2021/01/02 09:05:18;;;;;;;7.10;6.40;;;6.80;99.90;;;;;;5096376;27;20032;-61
2021/01/02 09:08:04;;;;;;;8.07;6.70;;;6.80;99.90;;;;;;5095015;28;20082;-60
2021/01/02 09:10:37;;;;;;;7.27;6.33;;;6.90;99.90;;;;;;5097058;27;20042;-61
2021/01/02 09:13:22;;;;;;;7.40;6.67;;;6.90;99.90;;;;;;5101423;27;20032;-61
2021/01/02 09:16:01;;;;;;;8.95;7.43;;;6.90;99.90;;;;;;5053567;27;20042;-61
2021/01/02 09:18:32;;;;;;;7.53;5.33;;;6.90;99.90;;;;;;5085016;28;20043;-60
2021/01/02 09:20:57;;;;;;;7.23;5.23;;;6.90;99.90;;;;;;5106611;27;20047;-61
2021/01/02 09:23:30;;;;;;;6.87;6.17;;;6.80;99.90;;;;;;5094156;28;20032;-61
2021/01/02 09:25:55;;;;;;;8.60;6.33;;;7.00;99.90;;;;;;5101876;27;20084;-60
2021/01/02 09:28:21;;;;;;;9.10;6.23;;;7.00;99.90;;;;;;5099006;27;20040;-60
2021/01/02 09:30:48;;;;;;;7.20;6.50;;;7.00;99.90;;;;;;5097646;28;20040;-60
2021/01/02 09:33:14;;;;;;;7.60;6.57;;;7.00;99.90;;;;;;5100941;27;20047;-61
2021/01/02 09:35:41;;;;;;;6.50;5.87;;;7.00;99.90;;;;;;5102383;27;20051;-60
2021/01/02 09:38:08;;;;;;;9.93;6.07;;;7.00;99.90;;;;;;5096758;27;20165;-60
2021/01/02 09:40:36;;;;;;;8.67;6.43;;;7.00;99.90;;;;;;5100538;27;20054;-61
2021/01/02 09:43:03;;;;;;;6.53;5.83;;;7.00;99.90;;;;;;5098060;28;20032;-61
2021/01/02 09:45:29;;;;;;;8.30;6.47;;;7.10;99.90;;;;;;5088256;27;20035;-61
2021/01/02 09:47:55;;;;;;;7.90;6.00;;;7.10;99.90;;;;;;5085428;28;20197;-61
2021/01/02 09:50:20;;;;;;;7.23;6.53;;;7.10;99.90;;;;;;5099547;28;20060;-61
2021/01/02 09:52:46;;;;;;;8.00;6.80;;;7.10;99.90;;;;;;5101504;27;20073;-61
2021/01/02 09:55:15;;;;;;;7.50;6.50;;;7.10;99.90;;;;;;5096055;28;20106;-61
2021/01/02 09:57:40;;;;;;;9.33;6.50;;;7.10;99.90;;;;;;5100772;27;20040;-61
2021/01/02 10:00:08;;;;;;;10.67;6.63;;;7.10;99.90;;;;;;5101419;27;20039;-60
2021/01/02 10:02:34;;;;;;;8.73;6.30;;;7.20;99.90;;;;;;5086834;27;20032;-60
2021/01/02 10:05:00;;;;;;;9.63;7.20;;;7.20;99.90;;;;;;5094686;27;20043;-61
2021/01/02 10:07:25;;;;;;;6.67;6.00;;;7.20;99.90;;;;;;5085372;28;20055;-61
2021/01/02 10:09:51;;;;;;;7.70;6.07;;;7.30;99.90;;;;;;5100664;27;20043;-61
2021/01/02 10:12:18;;;;;;;7.90;7.10;;;7.30;99.90;;;;;;5099599;28;20036;-61
2021/01/02 10:14:44;;;;;;;7.97;6.67;;;7.30;99.90;;;;;;5098495;27;20040;-61
2021/01/02 10:17:11;;;;;;;7.80;6.47;;;7.30;99.90;;;;;;5097635;27;20393;-61
2021/01/02 10:19:44;;;;;;;9.80;7.07;;;7.30;99.90;;;;;;5093913;28;20416;-60
2021/01/02 10:22:11;;;;;;;9.93;7.33;;;7.40;99.90;;;;;;5097424;27;20032;-61
2021/01/02 10:25:00;;;;;;;7.03;6.33;;;7.40;99.90;;;;;;5078917;27;20036;-61
2021/01/02 10:27:26;;;;;;;6.73;5.83;;;7.50;99.90;;;;;;5098705;28;20157;-60
2021/01/02 10:29:54;;;;;;;7.43;6.33;;;7.30;99.90;;;;;;5093154;28;20120;-61
2021/01/02 10:32:22;;;;;;;6.47;5.80;;;7.40;99.90;;;;;;5096451;28;20501;-60
2021/01/02 10:35:34;;;;;;;6.90;5.60;;;7.40;99.90;;;;;;5078107;28;20512;-62
2021/01/02 10:37:59;;;;;;;9.27;6.73;;;7.40;99.90;;;;;;5074126;28;20153;-61
2021/01/02 10:40:25;;;;;;;6.40;5.70;;;7.40;99.90;;;;;;5097558;28;20083;-61
2021/01/02 10:42:51;;;;;;;8.43;6.17;;;7.40;99.90;;;;;;5098070;28;20043;-61
2021/01/02 10:45:18;;;;;;;8.03;5.77;;;7.40;99.90;;;;;;5079112;28;20920;-61
2021/01/02 10:47:43;;;;;;;7.27;6.50;;;7.30;99.90;;;;;;5101356;27;20092;-61
2021/01/02 10:50:10;;;;;;;6.80;6.10;;;7.30;99.90;;;;;;5090718;28;20451;-61
2021/01/02 10:52:35;;;;;;;12.30;6.93;;;7.20;99.90;;;;;;5086597;28;20097;-60
2021/01/02 10:55:01;;;;;;;8.33;7.50;;;7.10;99.90;;;;;;5091413;28;20039;-61
2021/01/02 10:57:29;;;;;;;10.77;7.67;;;7.20;99.90;;;;;;5094027;27;20489;-61
2021/01/02 10:59:56;;;;;;;8.50;6.50;;;7.20;99.90;;;;;;5104092;27;20050;-61
2021/01/02 11:02:24;;;;;;;9.13;8.20;;;7.20;99.90;;;;;;5089221;27;20473;-61
2021/01/02 11:04:51;;;;;;;9.83;7.40;;;7.20;99.90;;;;;;5102673;28;20035;-61
2021/01/02 11:07:17;;;;;;;8.90;7.70;;;7.20;99.90;;;;;;5096699;27;20047;-61
2021/01/02 11:09:44;;;;;;;12.50;7.80;;;7.30;99.90;;;;;;5099566;28;20040;-60
2021/01/02 11:12:10;;;;;;;15.30;9.77;;;7.30;99.90;;;;;;5081450;28;20044;-60
2021/01/02 11:14:39;;;;;;;16.40;11.40;;;7.20;99.90;;;;;;5098985;28;20039;-60
2021/01/02 11:17:05;;;;;;;14.83;12.73;;;7.10;99.90;;;;;;5095897;27;20086;-61
2021/01/02 11:19:31;;;;;;;18.33;12.87;;;7.10;99.90;;;;;;5101404;28;20044;-61
2021/01/02 11:21:59;;;;;;;15.10;12.83;;;7.00;99.90;;;;;;5098857;28;20055;-61
2021/01/02 11:24:40;;;;;;;15.80;12.90;;;7.10;99.90;;;;;;5097691;28;20453;-61
2021/01/02 11:27:06;;;;;;;20.07;14.47;;;7.10;99.90;;;;;;5088769;28;20489;-58
2021/01/02 11:29:32;;;;;;;13.77;12.37;;;7.10;99.90;;;;;;5095450;28;20172;-61
2021/01/02 11:31:59;;;;;;;16.60;14.87;;;6.80;99.90;;;;;;5092632;28;20047;-61
2021/01/02 11:34:28;;;;;;;17.53;14.37;;;6.90;99.90;;;;;;5099383;27;20035;-60
2021/01/02 11:36:56;;;;;;;17.10;14.67;;;7.00;99.90;;;;;;5100491;27;20079;-61
2021/01/02 11:39:22;;;;;;;20.17;16.13;;;7.00;99.90;;;;;;5101518;27;20493;-61
2021/01/02 11:41:48;;;;;;;19.23;14.60;;;7.10;99.90;;;;;;5098370;28;20119;-61
2021/01/02 11:44:19;;;;;;;20.93;15.97;;;7.10;99.90;;;;;;5093187;27;20083;-60
2021/01/02 11:46:59;;;;;;;13.80;11.90;;;7.20;99.90;;;;;;5099751;27;20042;-61
2021/01/02 11:49:28;;;;;;;15.90;13.43;;;7.10;99.90;;;;;;5093091;27;20079;-61
2021/01/02 11:51:57;;;;;;;13.93;12.20;;;7.10;99.90;;;;;;5084592;27;20039;-61
2021/01/02 11:54:24;;;;;;;13.57;12.20;;;7.20;99.90;;;;;;5083327;28;20028;-61
2021/01/02 11:56:50;;;;;;;14.83;13.23;;;7.10;99.90;;;;;;5099303;28;20027;-61
2021/01/02 11:59:16;;;;;;;14.53;13.03;;;7.20;99.90;;;;;;5095690;28;20466;-60
2021/01/02 12:01:46;;;;;;;17.30;15.40;;;7.20;99.90;;;;;;5096449;28;20101;-61
2021/01/02 12:04:16;;;;;;;17.67;15.50;;;7.20;99.90;;;;;;5091104;27;20027;-61
2021/01/02 12:06:42;;;;;;;18.37;14.60;;;7.10;99.90;;;;;;5094965;28;20059;-61
2021/01/02 12:09:10;;;;;;;15.33;13.73;;;7.20;99.90;;;;;;5096781;28;20537;-61
2021/01/02 12:11:38;;;;;;;13.60;12.03;;;7.20;99.90;;;;;;5104261;28;20044;-61
2021/01/02 12:14:08;;;;;;;19.83;15.60;;;7.10;99.90;;;;;;5093346;28;20157;-61
2021/01/02 12:16:39;;;;;;;16.57;14.27;;;7.00;99.90;;;;;;5102296;27;20125;-61
2021/01/02 12:19:08;;;;;;;16.67;14.53;;;6.90;99.90;;;;;;5096726;28;20044;-61
2021/01/02 12:21:34;;;;;;;22.03;18.37;;;7.00;99.90;;;;;;5092495;28;20051;-61
2021/01/02 12:24:40;;;;;;;20.60;16.33;;;7.00;99.90;;;;;;5081452;28;20412;-60
2021/01/02 12:27:08;;;;;;;20.77;18.58;;;7.00;99.90;;;;;;5065924;27;20044;-59
2021/01/02 12:29:35;;;;;;;22.13;19.67;;;6.90;99.90;;;;;;5096504;28;20069;-61
2021/01/02 12:32:05;;;;;;;17.30;15.50;;;7.00;99.90;;;;;;5096737;28;20036;-60
2021/01/02 12:34:34;;;;;;;17.40;15.43;;;7.10;99.90;;;;;;5079096;28;20058;-61
2021/01/02 12:37:07;;;;;;;23.33;18.03;;;7.00;99.90;;;;;;5098434;28;20051;-60
2021/01/02 12:39:34;;;;;;;19.27;17.23;;;7.00;99.90;;;;;;5094991;28;20062;-60
2021/01/02 12:42:01;;;;;;;18.73;16.70;;;7.00;99.90;;;;;;5105714;28;20123;-60
2021/01/02 12:44:28;;;;;;;19.60;16.67;;;7.00;99.90;;;;;;5088573;28;20093;-60
2021/01/02 12:46:59;;;;;;;20.40;16.83;;;7.00;99.90;;;;;;5102349;28;20047;-60
2021/01/02 12:49:28;;;;;;;19.27;16.17;;;6.90;99.90;;;;;;5101931;28;20533;-60
2021/01/02 12:51:56;;;;;;;20.73;17.60;;;6.90;99.90;;;;;;5096179;27;20151;-60
2021/01/02 12:54:22;;;;;;;19.13;16.83;;;7.10;99.90;;;;;;5105993;27;20040;-60
2021/01/02 12:56:51;;;;;;;16.70;14.83;;;7.10;99.90;;;;;;5099224;27;20509;-60
2021/01/02 12:59:23;;;;;;;17.33;15.57;;;7.20;99.90;;;;;;5105102;27;20043;-60
2021/01/02 13:01:49;;;;;;;16.87;14.03;;;7.10;99.90;;;;;;5096879;28;20044;-60
2021/01/02 13:04:16;;;;;;;17.83;15.13;;;7.10;99.90;;;;;;5105891;27;20035;-60
2021/01/02 13:06:46;;;;;;;15.80;13.17;;;7.00;99.90;;;;;;5099642;27;20088;-60
2021/01/02 13:09:12;;;;;;;17.90;15.90;;;7.00;99.90;;;;;;5104387;28;20084;-60
2021/01/02 13:11:42;;;;;;;16.10;14.40;;;7.10;99.90;;;;;;5098626;28;20086;-61
2021/01/02 13:14:08;;;;;;;15.10;12.03;;;7.10;99.90;;;;;;5100659;28;20035;-59
2021/01/02 13:16:34;;;;;;;16.33;13.27;;;7.10;99.90;;;;;;5103015;27;20047;-60
2021/01/02 13:19:00;;;;;;;18.20;14.13;;;7.20;99.90;;;;;;5098514;27;20036;-60
2021/01/02 13:21:25;;;;;;;13.37;11.87;;;7.30;99.90;;;;;;5094069;28;20058;-60
2021/01/02 13:23:51;;;;;;;13.97;12.03;;;7.20;99.90;;;;;;5105655;28;20040;-60
2021/01/02 13:26:19;;;;;;;15.00;11.83;;;7.30;99.90;;;;;;5096409;28;20170;-61
2021/01/02 13:28:45;;;;;;;15.07;12.67;;;7.30;99.90;;;;;;5099530;28;20044;-60